Time;durP1;ratioP1;P1;durP2;ratioP2;P2;SDS_P1;SDS_P2;PMS_P1;PMS_P2;Temp;Humidity;BMP_temperature;BMP_pressure;BME280_temperature;BME280_humidity;BME280_pressure;Samples;Min_cycle;Max_cycle;Signal;HPM_P1;HPM_P2
2021/04/15 00:00:47;;;;;;;11.87;7.07;;;5.00;98.30;;;;;;5119392;23;20463;-82
2021/04/15 00:02:48;;;;;;;19.57;12.03;;;5.00;98.30;;;;;;5119537;23;20478;-80
2021/04/15 00:04:52;;;;;;;15.13;10.80;;;4.90;98.30;;;;;;5119247;23;20945;-81
2021/04/15 00:06:54;;;;;;;10.73;8.07;;;4.90;98.30;;;;;;5119301;23;20489;-81
2021/04/15 00:08:58;;;;;;;8.70;7.67;;;4.80;98.30;;;;;;5120289;23;20467;-81
2021/04/15 00:11:01;;;;;;;7.80;7.00;;;4.80;98.30;;;;;;5121236;23;20459;-81
2021/04/15 00:13:06;;;;;;;11.73;7.37;;;4.80;98.30;;;;;;5119545;23;20542;-81
2021/04/15 00:15:11;;;;;;;13.73;7.50;;;4.90;98.30;;;;;;5127585;23;21015;-81
2021/04/15 00:17:14;;;;;;;8.53;6.80;;;4.80;98.30;;;;;;5119284;23;20461;-81
2021/04/15 00:19:18;;;;;;;8.80;6.83;;;4.70;98.30;;;;;;5120093;23;20530;-81
2021/04/15 00:21:21;;;;;;;8.87;6.67;;;4.80;98.30;;;;;;5120336;23;20818;-81
2021/04/15 00:23:23;;;;;;;9.63;6.93;;;4.70;98.30;;;;;;5120499;23;20467;-81
2021/04/15 00:25:27;;;;;;;9.17;7.00;;;4.70;98.30;;;;;;5128158;23;20458;-81
2021/04/15 00:27:29;;;;;;;10.03;7.30;;;4.70;98.30;;;;;;5119768;23;20456;-80
2021/04/15 00:29:31;;;;;;;11.03;7.70;;;4.60;98.30;;;;;;5127188;23;20449;-80
2021/04/15 00:31:32;;;;;;;8.03;6.70;;;4.70;98.30;;;;;;5118450;23;20448;-81
2021/04/15 00:33:35;;;;;;;9.60;7.70;;;4.70;98.30;;;;;;5118928;23;20455;-81
2021/04/15 00:35:39;;;;;;;8.20;6.60;;;4.70;98.30;;;;;;5119307;23;20451;-81
2021/04/15 00:37:40;;;;;;;10.80;7.20;;;4.70;98.30;;;;;;5118868;23;20835;-81
2021/04/15 00:39:42;;;;;;;11.40;7.03;;;4.70;98.30;;;;;;5119137;23;20455;-81
2021/04/15 00:41:44;;;;;;;10.30;6.80;;;4.60;98.30;;;;;;5119698;23;21109;-81
2021/04/15 00:43:47;;;;;;;11.57;6.90;;;4.60;98.30;;;;;;5128146;23;20449;-81
2021/04/15 00:45:49;;;;;;;7.77;6.97;;;4.60;98.30;;;;;;5119654;23;20848;-81
2021/04/15 00:47:59;;;;;;;8.07;6.90;;;4.60;98.30;;;;;;5128900;23;20820;-81
2021/04/15 00:50:07;;;;;;;11.53;7.40;;;4.60;98.30;;;;;;5119989;23;20784;-81
2021/04/15 00:52:11;;;;;;;11.57;7.27;;;4.60;98.30;;;;;;5122213;23;20449;-80
2021/04/15 00:54:18;;;;;;;9.03;6.60;;;4.60;98.30;;;;;;5118882;23;21036;-81
2021/04/15 00:56:20;;;;;;;8.90;6.90;;;4.60;98.30;;;;;;5126854;23;20445;-80
2021/04/15 00:58:22;;;;;;;8.50;7.50;;;4.60;98.30;;;;;;5119003;23;20451;-81
2021/04/15 01:00:27;;;;;;;8.53;6.83;;;4.60;98.30;;;;;;5118823;23;20465;-81
2021/04/15 01:02:30;;;;;;;9.13;7.40;;;4.50;98.30;;;;;;5119772;23;20462;-81
2021/04/15 01:04:32;;;;;;;8.60;6.73;;;4.50;98.30;;;;;;5120185;23;20542;-82
2021/04/15 01:06:36;;;;;;;10.00;6.50;;;4.50;98.30;;;;;;5120417;23;20465;-82
2021/04/15 01:08:38;;;;;;;8.87;7.07;;;4.50;98.30;;;;;;5119888;23;20478;-81
2021/04/15 01:10:41;;;;;;;7.87;6.20;;;4.50;98.30;;;;;;5119756;23;20459;-81
2021/04/15 01:12:54;;;;;;;8.63;7.27;;;4.50;98.30;;;;;;5119821;23;20447;-81
2021/04/15 01:15:09;;;;;;;11.77;8.13;;;4.50;98.30;;;;;;5119770;23;20459;-81
2021/04/15 01:17:17;;;;;;;11.27;7.40;;;4.50;98.30;;;;;;5119235;23;20454;-82
2021/04/15 01:19:42;;;;;;;9.50;7.40;;;4.40;98.30;;;;;;5120680;23;20453;-81
2021/04/15 01:22:08;;;;;;;7.43;6.50;;;4.40;98.30;;;;;;5121579;23;21285;-81
2021/04/15 01:24:14;;;;;;;30.23;18.70;;;4.40;98.30;;;;;;5119212;23;20470;-81
2021/04/15 01:26:49;;;;;;;38.60;22.20;;;4.40;98.30;;;;;;5119171;23;20458;-81
2021/04/15 01:29:00;;;;;;;63.93;37.10;;;4.40;98.30;;;;;;5119142;23;20453;-82
2021/04/15 01:31:08;;;;;;;27.50;17.03;;;4.30;98.30;;;;;;5119804;23;20541;-81
2021/04/15 01:33:15;;;;;;;15.07;10.23;;;4.30;98.30;;;;;;5118894;23;20800;-81
2021/04/15 01:35:23;;;;;;;11.33;7.87;;;4.30;98.30;;;;;;5119042;23;20821;-81
2021/04/15 01:37:31;;;;;;;9.83;7.53;;;4.30;98.30;;;;;;5119770;23;20457;-83
2021/04/15 01:39:40;;;;;;;9.13;7.43;;;4.30;98.30;;;;;;5119816;23;20453;-81
2021/04/15 01:41:49;;;;;;;6.97;5.80;;;4.30;98.30;;;;;;5120172;23;20453;-82
2021/04/15 01:43:54;;;;;;;8.13;6.80;;;4.30;98.30;;;;;;5120947;23;20454;-81
2021/04/15 01:45:58;;;;;;;11.63;6.30;;;4.30;98.30;;;;;;5120320;23;20450;-81
2021/04/15 01:48:04;;;;;;;8.00;6.50;;;4.30;98.30;;;;;;5120737;23;20457;-81
2021/04/15 01:50:14;;;;;;;8.50;5.60;;;4.30;98.30;;;;;;5120348;23;20460;-82
2021/04/15 01:52:18;;;;;;;9.10;6.63;;;4.30;98.30;;;;;;5123068;23;20454;-81
2021/04/15 01:54:25;;;;;;;7.97;7.18;;;4.30;98.30;;;;;;5123973;23;20453;-81
2021/04/15 01:56:33;;;;;;;8.30;6.63;;;4.30;98.30;;;;;;5127912;23;20217;-82
2021/04/15 01:58:43;;;;;;;6.93;5.90;;;4.20;98.30;;;;;;5121616;23;20457;-81
2021/04/15 02:00:49;;;;;;;10.83;6.70;;;4.20;98.30;;;;;;5122038;23;20457;-81
2021/04/15 02:02:55;;;;;;;8.55;6.30;;;4.20;98.30;;;;;;5121732;23;20945;-82
2021/04/15 02:05:02;;;;;;;8.10;7.30;;;4.20;98.30;;;;;;5124286;23;20206;-81
2021/04/15 02:07:09;;;;;;;9.60;6.67;;;4.20;98.30;;;;;;5129902;23;20508;-81
2021/04/15 02:09:14;;;;;;;7.33;6.47;;;4.20;98.30;;;;;;5123532;23;20994;-82
2021/04/15 02:11:21;;;;;;;7.38;5.80;;;4.20;98.30;;;;;;5120077;23;20602;-81
2021/04/15 02:13:26;;;;;;;7.37;6.10;;;4.20;98.30;;;;;;5120493;23;20207;-81
2021/04/15 02:15:41;;;;;;;9.80;5.57;;;4.20;98.30;;;;;;5120357;23;20492;-82
2021/04/15 02:17:43;;;;;;;7.33;5.80;;;4.20;98.30;;;;;;5120209;23;20458;-81
2021/04/15 02:19:50;;;;;;;9.57;6.40;;;4.20;98.30;;;;;;5121314;23;20454;-82
2021/04/15 02:22:00;;;;;;;7.30;6.20;;;4.10;98.30;;;;;;5128771;23;20968;-82
2021/04/15 02:24:07;;;;;;;6.03;5.27;;;4.10;98.30;;;;;;5119582;23;20477;-82
2021/04/15 02:26:14;;;;;;;7.33;6.27;;;4.20;98.30;;;;;;5120374;23;20552;-81
2021/04/15 02:28:20;;;;;;;8.53;6.37;;;4.10;98.30;;;;;;5120257;23;20809;-82
2021/04/15 02:30:28;;;;;;;10.20;6.83;;;4.00;98.30;;;;;;5119854;23;20952;-82
2021/04/15 02:32:33;;;;;;;7.23;6.23;;;4.00;98.30;;;;;;5120472;23;20775;-81
2021/04/15 02:34:39;;;;;;;7.97;5.73;;;4.00;98.30;;;;;;5120662;23;20541;-82
2021/04/15 02:36:45;;;;;;;6.30;5.30;;;4.10;98.30;;;;;;5128201;23;20453;-82
2021/04/15 02:38:52;;;;;;;9.43;5.43;;;4.10;98.30;;;;;;5119538;23;20451;-82
2021/04/15 02:40:57;;;;;;;6.93;5.43;;;4.10;98.30;;;;;;5120467;23;21141;-82
2021/04/15 02:43:03;;;;;;;6.70;5.50;;;4.10;98.30;;;;;;5120478;23;20461;-82
2021/04/15 02:45:19;;;;;;;6.70;6.03;;;4.10;98.30;;;;;;5120127;23;20459;-82
2021/04/15 02:47:28;;;;;;;9.83;6.03;;;4.10;98.30;;;;;;5129214;23;20494;-81
2021/04/15 02:49:32;;;;;;;10.27;5.63;;;4.00;98.30;;;;;;5120429;23;20496;-81
2021/04/15 02:51:37;;;;;;;8.07;5.60;;;4.10;98.30;;;;;;5129097;23;20446;-82
2021/04/15 02:53:45;;;;;;;7.85;5.53;;;4.10;98.30;;;;;;5120367;23;20534;-80
2021/04/15 02:55:52;;;;;;;6.32;5.70;;;4.10;98.30;;;;;;5120974;23;20206;-80
2021/04/15 02:58:00;;;;;;;7.00;5.67;;;4.00;98.30;;;;;;5118741;23;20206;-81
2021/04/15 03:00:11;;;;;;;8.50;5.63;;;4.00;98.30;;;;;;5119138;23;20488;-81
2021/04/15 03:02:17;;;;;;;9.80;6.57;;;4.00;98.30;;;;;;5125390;23;20514;-80
2021/04/15 03:04:22;;;;;;;8.70;5.87;;;4.00;98.30;;;;;;5131474;23;20756;-80
2021/04/15 03:06:27;;;;;;;11.07;5.60;;;4.00;98.30;;;;;;5132010;23;20450;-80
2021/04/15 03:08:30;;;;;;;12.27;6.28;;;4.00;98.30;;;;;;5134040;23;20450;-80
2021/04/15 03:10:34;;;;;;;10.57;5.60;;;4.10;98.30;;;;;;5133273;23;20214;-80
2021/04/15 03:12:40;;;;;;;12.47;5.83;;;4.10;98.30;;;;;;5122596;23;20450;-80
2021/04/15 03:14:47;;;;;;;9.73;6.10;;;4.10;98.30;;;;;;5121269;23;20456;-81
2021/04/15 03:16:51;;;;;;;10.32;5.55;;;4.10;98.30;;;;;;5120609;23;20450;-81
2021/04/15 03:18:58;;;;;;;23.67;6.80;;;4.00;98.30;;;;;;5121162;23;20240;-80
2021/04/15 03:21:04;;;;;;;7.18;5.97;;;4.00;98.30;;;;;;5118564;23;20211;-81
2021/04/15 03:23:11;;;;;;;10.20;7.20;;;4.00;98.30;;;;;;5125836;23;20219;-81
2021/04/15 03:25:14;;;;;;;12.63;7.30;;;4.00;98.30;;;;;;5117783;23;20218;-80
2021/04/15 03:27:27;;;;;;;12.40;7.97;;;4.00;98.30;;;;;;5118786;23;20460;-80
2021/04/15 03:29:33;;;;;;;13.65;8.25;;;4.00;98.30;;;;;;5118764;23;20777;-80
2021/04/15 03:31:43;;;;;;;12.05;8.63;;;4.00;98.30;;;;;;5117765;23;20214;-80
2021/04/15 03:33:49;;;;;;;16.10;9.33;;;4.00;98.30;;;;;;5116432;23;20210;-80
2021/04/15 03:35:58;;;;;;;17.55;10.10;;;3.90;98.30;;;;;;5116323;23;20512;-81
2021/04/15 03:38:08;;;;;;;11.88;8.00;;;3.90;98.30;;;;;;5117608;23;20228;-81
2021/04/15 03:40:13;;;;;;;12.68;9.50;;;3.90;98.30;;;;;;5117905;23;20210;-81
2021/04/15 03:42:23;;;;;;;15.37;9.00;;;3.90;98.30;;;;;;5118336;23;20289;-81
2021/04/15 03:44:33;;;;;;;15.52;8.80;;;3.90;98.30;;;;;;5118025;23;20544;-82
2021/04/15 03:46:39;;;;;;;13.63;9.53;;;3.80;98.30;;;;;;5117753;23;20217;-81
2021/04/15 03:48:46;;;;;;;15.50;9.30;;;3.80;98.30;;;;;;5117323;23;20765;-81
2021/04/15 03:50:52;;;;;;;14.60;10.43;;;3.80;98.30;;;;;;5126016;23;20446;-81
2021/04/15 03:52:59;;;;;;;10.98;7.28;;;3.80;98.30;;;;;;5126039;23;20488;-82
2021/04/15 03:55:13;;;;;;;11.98;7.40;;;3.70;98.30;;;;;;5118226;23;20202;-81
2021/04/15 03:57:19;;;;;;;13.60;9.13;;;3.70;98.30;;;;;;5119479;23;20207;-81
2021/04/15 03:59:38;;;;;;;25.10;15.43;;;3.70;98.30;;;;;;5117136;23;20536;-81
2021/04/15 04:01:44;;;;;;;15.70;10.10;;;3.70;98.30;;;;;;5117632;23;20212;-81
2021/04/15 04:03:54;;;;;;;11.02;8.27;;;3.70;98.30;;;;;;5119031;23;20210;-81
2021/04/15 04:06:01;;;;;;;10.45;7.50;;;3.70;98.30;;;;;;5120286;23;20620;-81
2021/04/15 04:08:11;;;;;;;11.83;8.23;;;3.60;98.30;;;;;;5120624;23;20216;-81
2021/04/15 04:10:20;;;;;;;11.40;7.93;;;3.60;98.30;;;;;;5131087;23;20445;-81
2021/04/15 04:12:27;;;;;;;11.52;9.30;;;3.60;98.30;;;;;;5117603;23;20786;-81
2021/04/15 04:14:34;;;;;;;8.93;7.88;;;3.60;98.30;;;;;;5116671;23;20209;-81
2021/04/15 04:16:40;;;;;;;13.68;10.52;;;3.60;98.30;;;;;;5117104;23;20583;-81
2021/04/15 04:19:02;;;;;;;22.90;10.97;;;3.60;98.30;;;;;;5117288;23;20209;-81
2021/04/15 04:21:11;;;;;;;15.85;11.20;;;3.70;98.30;;;;;;5117708;23;20458;-81
2021/04/15 04:23:26;;;;;;;15.40;9.77;;;3.60;98.30;;;;;;5118078;23;20666;-83
2021/04/15 04:25:33;;;;;;;14.27;10.52;;;3.60;98.30;;;;;;5125268;23;20213;-81
2021/04/15 04:27:41;;;;;;;16.80;9.85;;;3.60;98.30;;;;;;5118031;23;20206;-81
2021/04/15 04:29:50;;;;;;;15.15;11.65;;;3.60;98.30;;;;;;5125645;23;20256;-81
2021/04/15 04:31:55;;;;;;;15.50;12.02;;;3.60;98.30;;;;;;5118161;23;20202;-81
2021/04/15 04:33:57;;;;;;;14.00;11.20;;;3.70;98.30;;;;;;5120539;23;20245;-81
2021/04/15 04:35:59;;;;;;;17.17;11.05;;;3.70;98.30;;;;;;5127726;23;20258;-81
2021/04/15 04:38:04;;;;;;;13.30;9.98;;;3.60;98.30;;;;;;5118656;23;20202;-81
2021/04/15 04:40:11;;;;;;;19.23;11.43;;;3.60;98.30;;;;;;5118022;23;20207;-81
2021/04/15 04:42:21;;;;;;;14.00;9.60;;;3.70;98.30;;;;;;5117957;23;20210;-81
2021/04/15 04:44:28;;;;;;;16.45;10.07;;;3.70;98.30;;;;;;5118610;23;20203;-81
2021/04/15 04:46:38;;;;;;;13.10;9.50;;;3.70;98.30;;;;;;5118388;23;20205;-81
2021/04/15 04:48:45;;;;;;;15.10;11.77;;;3.70;98.30;;;;;;5117965;23;20855;-82
2021/04/15 04:50:51;;;;;;;14.45;11.25;;;3.70;98.30;;;;;;5118130;23;20285;-82
2021/04/15 04:52:58;;;;;;;13.40;10.57;;;3.60;98.30;;;;;;5126666;23;20207;-82
2021/04/15 04:55:07;;;;;;;16.75;9.38;;;3.60;98.30;;;;;;5117725;23;20210;-82
2021/04/15 04:57:14;;;;;;;13.80;9.70;;;3.60;98.30;;;;;;5117840;23;20214;-82
2021/04/15 04:59:21;;;;;;;13.77;10.40;;;3.60;98.30;;;;;;5117587;23;20209;-82
2021/04/15 05:01:24;;;;;;;11.23;8.18;;;3.60;98.30;;;;;;5117997;23;20210;-82
2021/04/15 05:03:27;;;;;;;11.75;9.00;;;3.60;98.30;;;;;;5117417;23;20214;-82
2021/04/15 05:05:32;;;;;;;12.07;9.57;;;3.70;98.30;;;;;;5118170;23;20670;-82
2021/04/15 05:07:37;;;;;;;10.30;9.15;;;3.70;98.30;;;;;;5117291;23;20482;-82
2021/04/15 05:09:43;;;;;;;11.35;8.85;;;3.70;98.30;;;;;;5126075;23;20521;-82
2021/04/15 05:11:47;;;;;;;13.68;9.27;;;3.70;98.30;;;;;;5118437;23;20273;-82
2021/04/15 05:13:50;;;;;;;14.15;9.52;;;3.70;98.30;;;;;;5118655;23;20203;-82
2021/04/15 05:15:53;;;;;;;12.77;8.55;;;3.70;98.30;;;;;;5123941;23;20206;-82
2021/04/15 05:17:56;;;;;;;11.73;8.77;;;3.70;98.30;;;;;;5117755;23;20213;-82
2021/04/15 05:20:01;;;;;;;13.23;8.73;;;3.80;98.30;;;;;;5117307;23;20207;-82
2021/04/15 05:22:06;;;;;;;15.37;9.10;;;3.90;98.30;;;;;;5125274;23;20684;-83
2021/04/15 05:24:16;;;;;;;13.18;8.15;;;3.90;98.30;;;;;;5117160;23;20521;-82
2021/04/15 05:26:22;;;;;;;12.73;8.53;;;3.90;98.30;;;;;;5119113;23;20667;-82
2021/04/15 05:28:25;;;;;;;10.70;7.60;;;3.90;98.30;;;;;;5118912;23;20456;-82
2021/04/15 05:30:40;;;;;;;12.53;7.83;;;4.00;98.30;;;;;;5118668;23;20979;-82
2021/04/15 05:32:46;;;;;;;9.13;7.68;;;4.00;98.30;;;;;;5118696;23;20445;-82
2021/04/15 05:34:55;;;;;;;10.40;8.47;;;4.00;98.30;;;;;;5119101;23;20238;-82
2021/04/15 05:37:00;;;;;;;11.27;8.05;;;4.10;98.30;;;;;;5119031;23;20457;-82
2021/04/15 05:39:08;;;;;;;11.02;8.13;;;4.10;98.30;;;;;;5119103;23;20207;-81
2021/04/15 05:41:28;;;;;;;11.93;7.65;;;4.10;98.30;;;;;;5119387;23;20209;-82
2021/04/15 05:43:36;;;;;;;15.73;8.17;;;4.10;98.30;;;;;;5119547;23;20626;-82
2021/04/15 05:45:40;;;;;;;7.87;7.07;;;4.20;98.30;;;;;;5119135;23;20454;-82
2021/04/15 05:47:53;;;;;;;13.37;7.10;;;4.20;98.30;;;;;;5119431;23;20446;-82
2021/04/15 05:50:00;;;;;;;10.20;7.80;;;4.30;98.30;;;;;;5118661;23;21283;-83
2021/04/15 05:52:06;;;;;;;10.10;7.00;;;4.40;98.30;;;;;;5119820;23;20458;-82
2021/04/15 05:54:12;;;;;;;11.53;7.70;;;4.40;98.30;;;;;;5127937;23;20458;-82
2021/04/15 05:56:19;;;;;;;9.70;7.17;;;4.50;98.30;;;;;;5127548;23;20450;-82
2021/04/15 05:58:26;;;;;;;10.97;7.77;;;4.60;98.30;;;;;;5119577;23;20458;-82
2021/04/15 06:00:34;;;;;;;8.20;7.30;;;4.70;98.30;;;;;;5119634;23;20793;-82
2021/04/15 06:02:51;;;;;;;12.00;8.13;;;4.70;98.30;;;;;;5128047;23;20553;-82
2021/04/15 06:04:58;;;;;;;13.83;8.80;;;4.80;98.30;;;;;;5119688;23;20457;-82
2021/04/15 06:07:03;;;;;;;19.20;12.00;;;5.30;98.30;;;;;;5119623;23;20464;-83
2021/04/15 06:09:06;;;;;;;17.20;11.83;;;5.70;98.30;;;;;;5119781;23;20456;-83
2021/04/15 06:11:31;;;;;;;11.03;8.10;;;5.80;98.30;;;;;;5119251;23;20453;-83
2021/04/15 06:13:43;;;;;;;12.37;8.87;;;5.70;98.30;;;;;;5119665;23;20446;-83
2021/04/15 06:15:54;;;;;;;11.17;8.07;;;5.70;98.30;;;;;;5119902;23;20457;-83
2021/04/15 06:18:01;;;;;;;11.50;7.60;;;5.70;98.30;;;;;;5128191;23;20527;-83
2021/04/15 06:20:11;;;;;;;9.13;6.73;;;5.80;98.30;;;;;;5119144;23;20519;-83
2021/04/15 06:22:16;;;;;;;10.30;8.13;;;5.90;98.30;;;;;;5118433;23;20457;-83
2021/04/15 06:24:23;;;;;;;10.83;7.87;;;6.00;98.30;;;;;;5119743;23;20507;-83
2021/04/15 06:26:29;;;;;;;10.43;7.37;;;6.00;98.30;;;;;;5127782;23;20445;-83
2021/04/15 06:28:36;;;;;;;10.53;7.50;;;6.10;98.30;;;;;;5119881;23;20495;-83
2021/04/15 06:30:43;;;;;;;9.53;6.20;;;6.10;98.30;;;;;;5120866;23;20454;-83
2021/04/15 06:32:53;;;;;;;9.13;6.30;;;6.20;98.30;;;;;;5119390;23;20449;-83
2021/04/15 06:34:56;;;;;;;8.87;5.77;;;6.20;98.30;;;;;;5120130;23;20453;-82
2021/04/15 06:37:04;;;;;;;7.83;5.70;;;6.30;98.30;;;;;;5119427;23;20454;-82
2021/04/15 06:39:18;;;;;;;8.57;6.10;;;6.30;98.30;;;;;;5122746;23;20450;-85
2021/04/15 06:42:06;;;;;;;6.53;5.10;;;6.30;98.30;;;;;;5110954;23;20546;-84
2021/04/15 06:44:43;;;;;;;9.07;5.70;;;6.50;98.30;;;;;;5117842;23;20453;-85
2021/04/15 06:47:19;;;;;;;8.90;5.70;;;6.60;98.30;;;;;;5109794;23;20457;-84
2021/04/15 06:49:52;;;;;;;8.37;5.77;;;6.70;98.30;;;;;;5091895;23;20494;-84
2021/04/15 06:52:03;;;;;;;13.87;6.53;;;6.80;98.30;;;;;;5126495;23;20471;-84
2021/04/15 06:54:43;;;;;;;8.43;5.30;;;7.00;98.30;;;;;;5118003;23;20461;-84
2021/04/15 06:57:05;;;;;;;9.43;5.33;;;7.00;98.30;;;;;;5117785;23;20519;-85
2021/04/15 06:59:39;;;;;;;11.53;5.50;;;7.10;98.30;;;;;;5119042;23;20450;-84
2021/04/15 07:01:51;;;;;;;28.83;16.53;;;7.20;98.30;;;;;;5101202;23;20527;-84
2021/04/15 07:04:11;;;;;;;47.23;26.17;;;7.30;98.30;;;;;;5115954;23;20516;-84
2021/04/15 07:06:29;;;;;;;35.30;19.70;;;7.30;98.30;;;;;;5124536;23;20449;-84
2021/04/15 07:09:03;;;;;;;10.50;5.83;;;7.40;98.30;;;;;;5117230;23;20466;-84
2021/04/15 07:11:15;;;;;;;75.13;42.27;;;7.40;98.30;;;;;;5056720;23;20852;-84
2021/04/15 07:13:42;;;;;;;169.57;78.17;;;7.40;98.30;;;;;;5129947;23;20457;-84
2021/04/15 07:16:13;;;;;;;102.43;46.77;;;7.60;98.30;;;;;;5119444;23;21228;-84
2021/04/15 07:18:51;;;;;;;14.53;9.40;;;7.70;98.30;;;;;;5118643;23;20424;-84
2021/04/15 07:21:17;;;;;;;10.13;5.27;;;7.90;98.30;;;;;;5116264;23;20449;-84
2021/04/15 07:24:10;;;;;;;8.07;5.30;;;8.00;98.30;;;;;;5124376;23;20461;-85
2021/04/15 07:26:47;;;;;;;7.73;5.77;;;8.00;98.30;;;;;;5025140;23;20450;-86
2021/04/15 07:29:19;;;;;;;7.60;5.20;;;8.00;98.30;;;;;;5024992;23;20812;-86
2021/04/15 07:31:38;;;;;;;9.47;5.70;;;8.20;98.30;;;;;;5057823;23;20562;-85
2021/04/15 07:33:55;;;;;;;26.33;13.17;;;8.40;98.30;;;;;;5099499;23;20505;-85
2021/04/15 07:36:26;;;;;;;31.70;15.43;;;8.60;98.30;;;;;;5099994;23;20517;-85
2021/04/15 07:38:42;;;;;;;23.00;12.93;;;8.80;98.30;;;;;;5091443;23;20429;-85
2021/04/15 07:41:01;;;;;;;10.27;7.00;;;9.00;98.30;;;;;;5090731;23;20451;-86
2021/04/15 07:43:16;;;;;;;8.40;6.00;;;9.00;98.30;;;;;;5091158;23;20824;-84
2021/04/15 07:45:24;;;;;;;10.63;8.30;;;9.00;98.30;;;;;;5091241;23;20929;-84
2021/04/15 07:48:01;;;;;;;9.13;4.90;;;9.10;98.30;;;;;;5098936;23;20474;-85
2021/04/15 07:50:35;;;;;;;6.47;4.77;;;9.10;98.30;;;;;;5099529;23;20417;-86
2021/04/15 07:53:07;;;;;;;5.97;4.50;;;9.20;98.30;;;;;;5023640;23;20529;-85
2021/04/15 07:55:30;;;;;;;7.13;4.67;;;9.40;98.30;;;;;;5091332;23;20780;-85
2021/04/15 07:58:00;;;;;;;6.73;4.97;;;9.50;98.30;;;;;;5101166;23;20435;-86
2021/04/15 08:00:20;;;;;;;8.20;5.13;;;9.60;98.30;;;;;;5098928;23;20471;-84
2021/04/15 08:02:38;;;;;;;5.60;4.20;;;9.80;98.30;;;;;;5099589;23;20451;-84
2021/04/15 08:05:08;;;;;;;5.50;4.03;;;9.80;98.30;;;;;;5098933;23;20513;-86
2021/04/15 08:07:40;;;;;;;5.67;3.50;;;9.90;98.30;;;;;;5099994;23;20454;-85
2021/04/15 08:10:01;;;;;;;5.13;3.63;;;9.90;98.30;;;;;;5090494;23;20526;-87
2021/04/15 08:12:38;;;;;;;5.40;3.93;;;10.10;98.30;;;;;;5091801;23;20934;-86
2021/04/15 08:15:05;;;;;;;6.87;4.27;;;10.30;98.00;;;;;;5098947;23;20529;-86
2021/04/15 08:17:26;;;;;;;10.27;7.03;;;10.30;97.30;;;;;;5098515;23;20760;-87
2021/04/15 08:19:57;;;;;;;11.63;6.90;;;10.40;97.10;;;;;;5098759;23;20446;-86
2021/04/15 08:22:05;;;;;;;17.90;10.23;;;10.70;95.60;;;;;;5101991;23;20493;-82
2021/04/15 08:24:24;;;;;;;27.53;17.47;;;10.90;94.90;;;;;;5134005;23;20878;-83
2021/04/15 08:26:55;;;;;;;18.20;12.50;;;10.90;92.70;;;;;;5139342;23;20453;-83
2021/04/15 08:29:09;;;;;;;6.63;5.30;;;11.10;91.00;;;;;;5132542;23;20445;-82
2021/04/15 08:31:23;;;;;;;5.30;4.13;;;11.20;91.00;;;;;;5134553;23;20513;-81
2021/04/15 08:34:07;;;;;;;4.87;3.80;;;11.10;89.40;;;;;;5132659;23;20472;-82
2021/04/15 08:36:45;;;;;;;3.57;2.70;;;11.20;89.40;;;;;;5132057;23;20548;-82
2021/04/15 08:39:00;;;;;;;4.73;3.07;;;11.30;88.40;;;;;;5104695;23;20454;-82
2021/04/15 08:41:11;;;;;;;4.77;4.30;;;11.40;87.80;;;;;;5131929;23;20465;-82
2021/04/15 08:43:30;;;;;;;4.40;2.97;;;11.60;86.10;;;;;;5125307;23;20454;-84
2021/04/15 08:45:41;;;;;;;18.20;13.03;;;11.70;86.30;;;;;;5126543;23;20593;-81
2021/04/15 08:47:52;;;;;;;30.77;20.93;;;11.80;85.50;;;;;;5122789;23;20484;-85
2021/04/15 08:50:08;;;;;;;25.97;19.47;;;11.90;84.40;;;;;;5129657;23;20446;-86
2021/04/15 08:52:26;;;;;;;4.50;3.80;;;12.00;84.30;;;;;;5129314;23;20992;-83
2021/04/15 08:54:45;;;;;;;4.00;3.00;;;12.20;83.50;;;;;;5127428;23;20982;-84
2021/04/15 08:56:52;;;;;;;2.40;2.20;;;12.40;82.60;;;;;;5127278;23;20517;-84
2021/04/15 08:59:25;;;;;;;4.30;2.70;;;12.50;80.80;;;;;;5125535;23;20508;-83
2021/04/15 09:01:37;;;;;;;3.13;2.60;;;12.50;79.60;;;;;;5127116;23;20523;-84
2021/04/15 09:03:44;;;;;;;3.43;3.00;;;12.70;79.00;;;;;;5129029;23;20956;-84
2021/04/15 09:06:14;;;;;;;2.40;2.20;;;12.90;79.80;;;;;;5130037;23;20446;-85
2021/04/15 09:08:22;;;;;;;2.93;2.30;;;13.00;77.40;;;;;;5118538;23;20459;-85
2021/04/15 09:10:29;;;;;;;6.07;4.30;;;12.90;74.60;;;;;;5126659;23;20445;-85
2021/04/15 09:12:59;;;;;;;5.30;3.80;;;12.90;74.90;;;;;;5126791;23;20456;-84
2021/04/15 09:15:16;;;;;;;3.43;2.70;;;13.10;76.20;;;;;;5126186;23;20477;-85
2021/04/15 09:17:28;;;;;;;3.57;2.93;;;13.20;76.10;;;;;;5126275;23;20445;-84
2021/04/15 09:19:48;;;;;;;6.57;5.13;;;13.30;72.90;;;;;;5126837;23;20497;-85
2021/04/15 09:21:57;;;;;;;4.00;3.53;;;13.40;73.70;;;;;;5126900;23;20536;-84
2021/04/15 09:24:13;;;;;;;2.70;2.50;;;13.60;73.60;;;;;;5117981;23;20463;-83
2021/04/15 09:26:27;;;;;;;4.50;3.33;;;13.70;73.10;;;;;;5126233;23;21295;-85
2021/04/15 09:28:35;;;;;;;4.93;2.70;;;13.80;73.80;;;;;;5118339;23;20454;-84
2021/04/15 09:30:54;;;;;;;2.63;2.40;;;13.90;73.30;;;;;;5125829;23;20449;-84
2021/04/15 09:33:03;;;;;;;2.30;2.10;;;13.90;72.70;;;;;;5118006;23;20888;-84
2021/04/15 09:35:13;;;;;;;3.40;2.73;;;13.90;72.40;;;;;;5126893;23;21116;-84
2021/04/15 09:37:47;;;;;;;6.60;2.50;;;13.90;71.70;;;;;;5118117;23;20453;-84
2021/04/15 09:40:01;;;;;;;4.37;2.60;;;13.80;72.50;;;;;;5100372;23;20492;-84
2021/04/15 09:42:20;;;;;;;2.97;2.67;;;14.00;71.80;;;;;;5118254;23;20449;-84
2021/04/15 09:44:52;;;;;;;3.17;2.87;;;14.10;71.20;;;;;;5126067;23;20974;-84
2021/04/15 09:47:00;;;;;;;2.47;2.20;;;14.40;71.70;;;;;;5114592;23;20454;-84
2021/04/15 09:49:20;;;;;;;4.40;2.33;;;14.70;71.00;;;;;;5126404;23;20529;-84
2021/04/15 09:51:51;;;;;;;4.00;3.53;;;14.60;70.20;;;;;;5125793;23;20537;-84
2021/04/15 09:54:03;;;;;;;3.70;2.40;;;14.50;70.70;;;;;;5125630;23;20477;-83
2021/04/15 09:56:14;;;;;;;3.50;3.13;;;14.80;70.90;;;;;;5126037;23;20445;-84
2021/04/15 09:58:27;;;;;;;5.10;3.40;;;14.70;71.30;;;;;;5116886;23;20548;-84
2021/04/15 10:00:33;;;;;;;54.43;32.97;;;14.40;71.50;;;;;;5125906;23;20449;-83
2021/04/15 10:02:44;;;;;;;16.97;10.00;;;14.10;72.80;;;;;;5118120;23;20511;-85
2021/04/15 10:04:53;;;;;;;18.20;13.97;;;14.00;73.50;;;;;;5126676;23;20451;-84
2021/04/15 10:07:00;;;;;;;4.97;4.30;;;13.90;72.10;;;;;;5127182;23;20446;-83
2021/04/15 10:09:31;;;;;;;6.93;2.90;;;13.60;69.00;;;;;;5126006;23;20450;-83
2021/04/15 10:12:11;;;;;;;2.00;1.77;;;13.20;68.80;;;;;;5125744;23;20452;-83
2021/04/15 10:14:24;;;;;;;3.50;2.43;;;13.10;69.10;;;;;;5026823;23;20458;-83
2021/04/15 10:16:36;;;;;;;4.10;2.40;;;13.50;69.10;;;;;;5081373;23;20456;-83
2021/04/15 10:19:04;;;;;;;4.03;2.20;;;13.90;68.70;;;;;;5124906;23;20540;-83
2021/04/15 10:21:34;;;;;;;12.63;9.70;;;13.70;65.40;;;;;;5130601;23;20957;-84
2021/04/15 10:23:49;;;;;;;55.93;37.20;;;13.50;68.30;;;;;;5130790;23;20453;-85
2021/04/15 10:25:56;;;;;;;49.13;30.57;;;13.40;68.80;;;;;;5119592;23;21278;-84
2021/04/15 10:28:43;;;;;;;3.77;2.70;;;13.50;69.40;;;;;;5119308;23;20485;-83
2021/04/15 10:31:22;;;;;;;5.80;4.10;;;13.20;68.10;;;;;;5107296;23;20517;-84
2021/04/15 10:33:52;;;;;;;3.23;2.70;;;13.10;69.90;;;;;;5126470;23;21158;-85
2021/04/15 10:36:18;;;;;;;2.87;2.53;;;12.90;69.70;;;;;;5126340;23;20860;-84
2021/04/15 10:38:57;;;;;;;3.00;2.70;;;12.80;70.00;;;;;;5126604;23;20559;-85
2021/04/15 10:41:23;;;;;;;3.60;2.90;;;12.60;70.10;;;;;;5111287;23;20450;-86
2021/04/15 10:44:00;;;;;;;3.73;2.87;;;12.50;70.70;;;;;;5125544;23;20477;-85
2021/04/15 10:46:27;;;;;;;40.50;25.23;;;12.60;71.00;;;;;;5125695;23;20449;-84
2021/04/15 10:48:42;;;;;;;84.80;44.83;;;12.60;70.50;;;;;;5125005;23;20452;-86
2021/04/15 10:50:55;;;;;;;4.80;3.33;;;12.60;69.10;;;;;;5123905;23;20521;-86
2021/04/15 10:53:08;;;;;;;4.80;3.67;;;12.50;68.40;;;;;;5126059;23;20451;-85
2021/04/15 10:55:18;;;;;;;4.70;3.80;;;12.30;70.90;;;;;;5125406;23;20529;-84
2021/04/15 10:57:28;;;;;;;2.93;2.67;;;12.30;71.80;;;;;;5126054;23;20527;-84
2021/04/15 10:59:38;;;;;;;3.93;3.03;;;12.20;71.40;;;;;;5125509;23;20516;-84
2021/04/15 11:01:42;;;;;;;3.90;2.90;;;12.00;72.30;;;;;;5124618;23;20872;-84
2021/04/15 11:03:44;;;;;;;2.73;2.23;;;11.90;71.90;;;;;;5118566;23;20453;-85
2021/04/15 11:05:49;;;;;;;5.50;3.23;;;11.80;72.00;;;;;;5123191;23;20453;-84
2021/04/15 11:07:54;;;;;;;2.97;2.53;;;11.80;71.70;;;;;;5123823;23;20944;-84
2021/04/15 11:09:57;;;;;;;2.90;2.60;;;11.80;72.00;;;;;;5123813;23;20446;-84
2021/04/15 11:12:03;;;;;;;3.10;2.73;;;11.90;72.40;;;;;;5127397;23;20449;-84
2021/04/15 11:14:06;;;;;;;3.97;2.80;;;11.90;73.30;;;;;;5120233;23;20454;-83
2021/04/15 11:16:18;;;;;;;18.40;14.00;;;11.90;74.00;;;;;;5121247;23;20940;-84
2021/04/15 11:18:29;;;;;;;47.27;32.43;;;12.10;74.50;;;;;;5128975;23;20890;-83
2021/04/15 11:20:35;;;;;;;45.13;30.10;;;12.40;73.90;;;;;;5128927;23;20869;-84
2021/04/15 11:22:40;;;;;;;6.90;5.43;;;12.60;73.80;;;;;;5127951;23;20461;-84
2021/04/15 11:24:43;;;;;;;4.13;3.40;;;12.60;73.00;;;;;;5119218;23;20479;-83
2021/04/15 11:26:47;;;;;;;6.23;2.73;;;12.60;72.40;;;;;;5128109;23;20446;-83
2021/04/15 11:28:51;;;;;;;3.83;2.83;;;12.60;72.60;;;;;;5120808;23;20481;-84